KHEQ

Holyoke Airport

Holyoke, Colorado, USA
METAR KHEQ 222110Z AUTO 11007KT 10SM CLR 23/04 A3017 RMK AO2
Observed Flight Rules
Oct-22 @ 21:10 UTC (25 minutes ago) Visual Flight Rules
Wind Visibility Clouds
110° at 7 knots 10 miles
  • Clear skies
Temperatures Readings
Current 23°C / 73°F
Dewpoint 4°C / 39°F
Humidity 29%
Altimeter 30.17" Hg
Pressure 1022 hPa
Elevation 1137
METAR KHEQ 222110Z AUTO 11007KT 10SM CLR 23/04 A3017 RMK AO2
Observed Flight Rules
Oct-22 @ 21:10 UTC
(25 minutes ago)
VFR
Wind Visibility
110° at 7 knots 10 miles
Clouds
  • Clear skies
Temperature Dewpoint
23°C / 73°F 4°C / 39°F
Humidity Altimeter Pressure
29% 30.17" Hg 1022 hPa